sensor_id;sensor_type;location;lat;lon;timestamp;temperature;humidity
9223;DHT22;7557;51.698;3.942;2023-02-26T00:00:05;4.90;99.90
9223;DHT22;7557;51.698;3.942;2023-02-26T00:02:35;5.00;99.90
9223;DHT22;7557;51.698;3.942;2023-02-26T00:05:05;5.00;99.90
9223;DHT22;7557;51.698;3.942;2023-02-26T00:07:32;5.00;99.90
9223;DHT22;7557;51.698;3.942;2023-02-26T00:10:00;5.00;99.90
9223;DHT22;7557;51.698;3.942;2023-02-26T00:12:28;5.00;99.90
9223;DHT22;7557;51.698;3.942;2023-02-26T00:14:55;4.90;99.90
9223;DHT22;7557;51.698;3.942;2023-02-26T00:17:31;4.90;99.90
9223;DHT22;7557;51.698;3.942;2023-02-26T00:20:00;4.90;99.90
9223;DHT22;7557;51.698;3.942;2023-02-26T00:22:29;4.90;99.90
9223;DHT22;7557;51.698;3.942;2023-02-26T00:24:56;4.90;99.90
9223;DHT22;7557;51.698;3.942;2023-02-26T00:27:24;4.90;99.90
9223;DHT22;7557;51.698;3.942;2023-02-26T00:29:51;4.90;99.90
9223;DHT22;7557;51.698;3.942;2023-02-26T00:32:19;5.00;99.90
9223;DHT22;7557;51.698;3.942;2023-02-26T00:34:47;5.00;99.90
9223;DHT22;7557;51.698;3.942;2023-02-26T00:37:31;5.00;99.90
9223;DHT22;7557;51.698;3.942;2023-02-26T00:40:09;5.00;99.90
9223;DHT22;7557;51.698;3.942;2023-02-26T00:42:38;5.00;99.90
9223;DHT22;7557;51.698;3.942;2023-02-26T00:45:06;5.00;99.90
9223;DHT22;7557;51.698;3.942;2023-02-26T00:47:41;5.00;99.90
9223;DHT22;7557;51.698;3.942;2023-02-26T00:50:46;5.10;99.90
9223;DHT22;7557;51.698;3.942;2023-02-26T00:53:21;5.10;99.90
9223;DHT22;7557;51.698;3.942;2023-02-26T00:55:49;5.10;99.90
9223;DHT22;7557;51.698;3.942;2023-02-26T00:58:16;5.10;99.90
9223;DHT22;7557;51.698;3.942;2023-02-26T01:00:43;5.10;99.90
9223;DHT22;7557;51.698;3.942;2023-02-26T01:03:11;5.20;99.90
9223;DHT22;7557;51.698;3.942;2023-02-26T01:05:38;5.10;99.90
9223;DHT22;7557;51.698;3.942;2023-02-26T01:08:11;5.20;99.90
9223;DHT22;7557;51.698;3.942;2023-02-26T01:10:41;5.10;99.90
9223;DHT22;7557;51.698;3.942;2023-02-26T01:13:09;5.20;99.90
9223;DHT22;7557;51.698;3.942;2023-02-26T01:15:37;5.20;99.90
9223;DHT22;7557;51.698;3.942;2023-02-26T01:18:07;5.20;99.90
9223;DHT22;7557;51.698;3.942;2023-02-26T01:20:41;5.20;99.90
9223;DHT22;7557;51.698;3.942;2023-02-26T01:23:14;5.20;99.90
9223;DHT22;7557;51.698;3.942;2023-02-26T01:25:47;5.20;99.90
9223;DHT22;7557;51.698;3.942;2023-02-26T01:28:15;5.20;99.90
9223;DHT22;7557;51.698;3.942;2023-02-26T01:30:43;5.20;99.90
9223;DHT22;7557;51.698;3.942;2023-02-26T01:33:18;5.20;99.90
9223;DHT22;7557;51.698;3.942;2023-02-26T01:35:50;5.20;99.90
9223;DHT22;7557;51.698;3.942;2023-02-26T01:38:23;5.20;99.90
9223;DHT22;7557;51.698;3.942;2023-02-26T01:41:12;5.20;99.90
9223;DHT22;7557;51.698;3.942;2023-02-26T01:43:46;5.20;99.90
9223;DHT22;7557;51.698;3.942;2023-02-26T01:46:21;5.20;99.90
9223;DHT22;7557;51.698;3.942;2023-02-26T01:48:50;5.20;99.90
9223;DHT22;7557;51.698;3.942;2023-02-26T01:51:41;5.20;99.90
9223;DHT22;7557;51.698;3.942;2023-02-26T01:54:07;5.20;99.90
9223;DHT22;7557;51.698;3.942;2023-02-26T01:56:35;5.20;99.90
9223;DHT22;7557;51.698;3.942;2023-02-26T01:59:03;5.20;99.90
9223;DHT22;7557;51.698;3.942;2023-02-26T02:01:31;5.20;99.90
9223;DHT22;7557;51.698;3.942;2023-02-26T02:03:58;5.30;99.90
9223;DHT22;7557;51.698;3.942;2023-02-26T02:06:26;5.20;99.90
9223;DHT22;7557;51.698;3.942;2023-02-26T02:08:55;5.20;99.90
9223;DHT22;7557;51.698;3.942;2023-02-26T02:11:24;5.20;99.90
9223;DHT22;7557;51.698;3.942;2023-02-26T02:14:00;5.20;99.90
9223;DHT22;7557;51.698;3.942;2023-02-26T02:16:36;5.20;99.90
9223;DHT22;7557;51.698;3.942;2023-02-26T02:19:28;5.10;99.90
9223;DHT22;7557;51.698;3.942;2023-02-26T02:22:18;5.10;99.90
9223;DHT22;7557;51.698;3.942;2023-02-26T02:25:01;5.10;99.90
9223;DHT22;7557;51.698;3.942;2023-02-26T02:27:43;5.10;99.90
9223;DHT22;7557;51.698;3.942;2023-02-26T02:30:24;5.00;99.90
9223;DHT22;7557;51.698;3.942;2023-02-26T02:33:01;5.00;99.90
9223;DHT22;7557;51.698;3.942;2023-02-26T02:35:33;4.90;99.90
9223;DHT22;7557;51.698;3.942;2023-02-26T02:38:06;4.80;99.90
9223;DHT22;7557;51.698;3.942;2023-02-26T02:40:39;4.80;99.90
9223;DHT22;7557;51.698;3.942;2023-02-26T02:43:10;4.80;99.90
9223;DHT22;7557;51.698;3.942;2023-02-26T02:45:42;4.70;99.90
9223;DHT22;7557;51.698;3.942;2023-02-26T02:48:15;4.70;99.90
9223;DHT22;7557;51.698;3.942;2023-02-26T02:50:47;4.70;99.90
9223;DHT22;7557;51.698;3.942;2023-02-26T02:53:20;4.60;99.90
9223;DHT22;7557;51.698;3.942;2023-02-26T02:55:52;4.60;99.90
9223;DHT22;7557;51.698;3.942;2023-02-26T02:58:23;4.60;99.90
9223;DHT22;7557;51.698;3.942;2023-02-26T03:00:55;4.60;99.90
9223;DHT22;7557;51.698;3.942;2023-02-26T03:03:28;4.50;99.90
9223;DHT22;7557;51.698;3.942;2023-02-26T03:05:57;4.50;99.90
9223;DHT22;7557;51.698;3.942;2023-02-26T03:08:27;4.50;99.90
9223;DHT22;7557;51.698;3.942;2023-02-26T03:10:56;4.40;99.90
9223;DHT22;7557;51.698;3.942;2023-02-26T03:13:25;4.40;99.90
9223;DHT22;7557;51.698;3.942;2023-02-26T03:16:03;4.30;99.90
9223;DHT22;7557;51.698;3.942;2023-02-26T03:18:45;4.30;99.90
9223;DHT22;7557;51.698;3.942;2023-02-26T03:21:23;4.30;99.90
9223;DHT22;7557;51.698;3.942;2023-02-26T03:23:58;4.30;99.90
9223;DHT22;7557;51.698;3.942;2023-02-26T03:26:30;4.20;99.90
9223;DHT22;7557;51.698;3.942;2023-02-26T03:29:03;4.20;99.90
9223;DHT22;7557;51.698;3.942;2023-02-26T03:31:36;4.10;99.90
9223;DHT22;7557;51.698;3.942;2023-02-26T03:34:11;4.10;99.90
9223;DHT22;7557;51.698;3.942;2023-02-26T03:36:41;4.00;99.90
9223;DHT22;7557;51.698;3.942;2023-02-26T03:39:13;3.90;99.90
9223;DHT22;7557;51.698;3.942;2023-02-26T03:41:43;3.90;99.90
9223;DHT22;7557;51.698;3.942;2023-02-26T03:44:15;3.80;99.90
9223;DHT22;7557;51.698;3.942;2023-02-26T03:46:47;3.80;99.90
9223;DHT22;7557;51.698;3.942;2023-02-26T03:49:20;3.80;99.90
9223;DHT22;7557;51.698;3.942;2023-02-26T03:51:50;3.80;99.90
9223;DHT22;7557;51.698;3.942;2023-02-26T03:54:20;3.70;99.90
9223;DHT22;7557;51.698;3.942;2023-02-26T03:56:48;3.60;99.90
9223;DHT22;7557;51.698;3.942;2023-02-26T03:59:16;3.60;99.90
9223;DHT22;7557;51.698;3.942;2023-02-26T04:01:48;3.60;99.90
9223;DHT22;7557;51.698;3.942;2023-02-26T04:04:21;3.60;99.90
9223;DHT22;7557;51.698;3.942;2023-02-26T04:06:49;3.60;99.90
9223;DHT22;7557;51.698;3.942;2023-02-26T04:09:18;3.50;99.90
9223;DHT22;7557;51.698;3.942;2023-02-26T04:11:46;3.50;99.90
9223;DHT22;7557;51.698;3.942;2023-02-26T04:14:14;3.50;99.90
9223;DHT22;7557;51.698;3.942;2023-02-26T04:16:42;3.50;99.90
9223;DHT22;7557;51.698;3.942;2023-02-26T04:19:10;3.50;99.90
9223;DHT22;7557;51.698;3.942;2023-02-26T04:21:39;3.50;99.90
9223;DHT22;7557;51.698;3.942;2023-02-26T04:24:06;3.50;99.90
9223;DHT22;7557;51.698;3.942;2023-02-26T04:26:33;3.50;99.90
9223;DHT22;7557;51.698;3.942;2023-02-26T04:29:00;3.50;99.90
9223;DHT22;7557;51.698;3.942;2023-02-26T04:31:27;3.50;99.90
9223;DHT22;7557;51.698;3.942;2023-02-26T04:33:54;3.50;99.90
9223;DHT22;7557;51.698;3.942;2023-02-26T04:36:21;3.50;99.90
9223;DHT22;7557;51.698;3.942;2023-02-26T04:38:50;3.40;99.90
9223;DHT22;7557;51.698;3.942;2023-02-26T04:41:18;3.40;99.90
9223;DHT22;7557;51.698;3.942;2023-02-26T04:43:45;3.40;99.90
9223;DHT22;7557;51.698;3.942;2023-02-26T04:46:12;3.40;99.90
9223;DHT22;7557;51.698;3.942;2023-02-26T04:48:39;3.40;99.90
9223;DHT22;7557;51.698;3.942;2023-02-26T04:51:06;3.40;99.90
9223;DHT22;7557;51.698;3.942;2023-02-26T04:53:34;3.40;99.90
9223;DHT22;7557;51.698;3.942;2023-02-26T04:56:02;3.40;99.90
9223;DHT22;7557;51.698;3.942;2023-02-26T04:58:29;3.40;99.90
9223;DHT22;7557;51.698;3.942;2023-02-26T05:00:56;3.40;99.90
9223;DHT22;7557;51.698;3.942;2023-02-26T05:03:23;3.40;99.90
9223;DHT22;7557;51.698;3.942;2023-02-26T05:05:51;3.40;99.90
9223;DHT22;7557;51.698;3.942;2023-02-26T05:08:18;3.40;99.90
9223;DHT22;7557;51.698;3.942;2023-02-26T05:10:45;3.40;99.90
9223;DHT22;7557;51.698;3.942;2023-02-26T05:13:13;3.40;99.90
9223;DHT22;7557;51.698;3.942;2023-02-26T05:15:40;3.40;99.90
9223;DHT22;7557;51.698;3.942;2023-02-26T05:18:07;3.40;99.90
9223;DHT22;7557;51.698;3.942;2023-02-26T05:20:35;3.40;99.90
9223;DHT22;7557;51.698;3.942;2023-02-26T05:23:02;3.40;99.90
9223;DHT22;7557;51.698;3.942;2023-02-26T05:25:29;3.40;99.90
9223;DHT22;7557;51.698;3.942;2023-02-26T05:27:56;3.40;99.90
9223;DHT22;7557;51.698;3.942;2023-02-26T05:30:25;3.40;99.90
9223;DHT22;7557;51.698;3.942;2023-02-26T05:32:52;3.40;99.90
9223;DHT22;7557;51.698;3.942;2023-02-26T05:35:19;3.40;99.90
9223;DHT22;7557;51.698;3.942;2023-02-26T05:37:46;3.40;99.90
9223;DHT22;7557;51.698;3.942;2023-02-26T05:40:13;3.40;99.90
9223;DHT22;7557;51.698;3.942;2023-02-26T05:42:40;3.40;99.90
9223;DHT22;7557;51.698;3.942;2023-02-26T05:45:08;3.40;99.90
9223;DHT22;7557;51.698;3.942;2023-02-26T05:47:37;3.30;99.90
9223;DHT22;7557;51.698;3.942;2023-02-26T05:50:05;3.30;99.90
9223;DHT22;7557;51.698;3.942;2023-02-26T05:52:32;3.30;99.90
9223;DHT22;7557;51.698;3.942;2023-02-26T05:54:59;3.30;99.90
9223;DHT22;7557;51.698;3.942;2023-02-26T05:57:26;3.30;99.90
9223;DHT22;7557;51.698;3.942;2023-02-26T05:59:54;3.30;99.90
9223;DHT22;7557;51.698;3.942;2023-02-26T06:02:21;3.30;99.90
9223;DHT22;7557;51.698;3.942;2023-02-26T06:04:50;3.30;99.90
9223;DHT22;7557;51.698;3.942;2023-02-26T06:07:17;3.30;99.90
9223;DHT22;7557;51.698;3.942;2023-02-26T06:09:44;3.30;99.90
9223;DHT22;7557;51.698;3.942;2023-02-26T06:12:11;3.30;99.90
9223;DHT22;7557;51.698;3.942;2023-02-26T06:14:38;3.30;99.90
9223;DHT22;7557;51.698;3.942;2023-02-26T06:17:05;3.30;99.90
9223;DHT22;7557;51.698;3.942;2023-02-26T06:19:33;3.30;99.90
9223;DHT22;7557;51.698;3.942;2023-02-26T06:22:02;3.30;99.90
9223;DHT22;7557;51.698;3.942;2023-02-26T06:24:29;3.30;99.90
9223;DHT22;7557;51.698;3.942;2023-02-26T06:26:56;3.20;99.90
9223;DHT22;7557;51.698;3.942;2023-02-26T06:29:23;3.20;99.90
9223;DHT22;7557;51.698;3.942;2023-02-26T06:31:50;3.20;99.90
9223;DHT22;7557;51.698;3.942;2023-02-26T06:34:17;3.20;99.90
9223;DHT22;7557;51.698;3.942;2023-02-26T06:36:44;3.20;99.90
9223;DHT22;7557;51.698;3.942;2023-02-26T06:39:13;3.20;99.90
9223;DHT22;7557;51.698;3.942;2023-02-26T06:41:40;3.20;99.90
9223;DHT22;7557;51.698;3.942;2023-02-26T06:44:08;3.20;99.90
9223;DHT22;7557;51.698;3.942;2023-02-26T06:46:35;3.20;99.90
9223;DHT22;7557;51.698;3.942;2023-02-26T06:49:02;3.10;99.90
9223;DHT22;7557;51.698;3.942;2023-02-26T06:51:29;3.10;99.90
9223;DHT22;7557;51.698;3.942;2023-02-26T06:53:56;3.00;99.90
9223;DHT22;7557;51.698;3.942;2023-02-26T06:56:25;3.00;99.90
9223;DHT22;7557;51.698;3.942;2023-02-26T06:58:52;3.00;99.90
9223;DHT22;7557;51.698;3.942;2023-02-26T07:01:19;3.00;99.90
9223;DHT22;7557;51.698;3.942;2023-02-26T07:03:46;3.00;99.90
9223;DHT22;7557;51.698;3.942;2023-02-26T07:06:13;3.10;99.90
9223;DHT22;7557;51.698;3.942;2023-02-26T07:08:40;3.10;99.90
9223;DHT22;7557;51.698;3.942;2023-02-26T07:11:07;3.10;99.90
9223;DHT22;7557;51.698;3.942;2023-02-26T07:13:36;3.10;99.90
9223;DHT22;7557;51.698;3.942;2023-02-26T07:16:04;3.10;99.90
9223;DHT22;7557;51.698;3.942;2023-02-26T07:18:32;3.20;99.90
9223;DHT22;7557;51.698;3.942;2023-02-26T07:21:00;3.20;99.90
9223;DHT22;7557;51.698;3.942;2023-02-26T07:23:27;3.20;99.90
9223;DHT22;7557;51.698;3.942;2023-02-26T07:25:54;3.30;99.90
9223;DHT22;7557;51.698;3.942;2023-02-26T07:28:21;3.30;99.90
9223;DHT22;7557;51.698;3.942;2023-02-26T07:30:49;3.40;99.90
9223;DHT22;7557;51.698;3.942;2023-02-26T07:33:17;3.40;99.90
9223;DHT22;7557;51.698;3.942;2023-02-26T07:35:44;3.40;99.90
9223;DHT22;7557;51.698;3.942;2023-02-26T07:38:11;3.40;99.90
9223;DHT22;7557;51.698;3.942;2023-02-26T07:40:38;3.40;99.90
9223;DHT22;7557;51.698;3.942;2023-02-26T07:43:05;3.40;99.90
9223;DHT22;7557;51.698;3.942;2023-02-26T07:45:32;3.40;99.90
9223;DHT22;7557;51.698;3.942;2023-02-26T07:48:00;3.40;99.90
9223;DHT22;7557;51.698;3.942;2023-02-26T07:50:28;3.50;99.90
9223;DHT22;7557;51.698;3.942;2023-02-26T07:52:55;3.40;99.90
9223;DHT22;7557;51.698;3.942;2023-02-26T07:55:22;3.40;99.90
9223;DHT22;7557;51.698;3.942;2023-02-26T07:57:49;3.50;99.90
9223;DHT22;7557;51.698;3.942;2023-02-26T08:00:17;3.60;99.90
9223;DHT22;7557;51.698;3.942;2023-02-26T08:02:44;3.60;99.90
9223;DHT22;7557;51.698;3.942;2023-02-26T08:05:13;3.70;99.90
9223;DHT22;7557;51.698;3.942;2023-02-26T08:07:40;3.70;99.90
9223;DHT22;7557;51.698;3.942;2023-02-26T08:10:09;3.70;99.90
9223;DHT22;7557;51.698;3.942;2023-02-26T08:12:37;3.70;99.90
9223;DHT22;7557;51.698;3.942;2023-02-26T08:15:05;3.80;99.90
9223;DHT22;7557;51.698;3.942;2023-02-26T08:17:32;3.80;99.90
9223;DHT22;7557;51.698;3.942;2023-02-26T08:19:59;3.90;99.90
9223;DHT22;7557;51.698;3.942;2023-02-26T08:22:28;3.90;99.90
9223;DHT22;7557;51.698;3.942;2023-02-26T08:24:55;3.90;99.90
9223;DHT22;7557;51.698;3.942;2023-02-26T08:27:22;4.00;99.90
9223;DHT22;7557;51.698;3.942;2023-02-26T08:29:49;4.00;99.90
9223;DHT22;7557;51.698;3.942;2023-02-26T08:32:17;4.00;99.90
9223;DHT22;7557;51.698;3.942;2023-02-26T08:34:47;4.00;99.90
9223;DHT22;7557;51.698;3.942;2023-02-26T08:37:15;4.00;99.90
9223;DHT22;7557;51.698;3.942;2023-02-26T08:39:43;4.10;99.90
9223;DHT22;7557;51.698;3.942;2023-02-26T08:42:10;4.10;99.90
9223;DHT22;7557;51.698;3.942;2023-02-26T08:44:40;4.10;99.90
9223;DHT22;7557;51.698;3.942;2023-02-26T08:47:08;4.20;99.90
9223;DHT22;7557;51.698;3.942;2023-02-26T08:49:35;4.30;99.90
9223;DHT22;7557;51.698;3.942;2023-02-26T08:52:03;4.30;99.90
9223;DHT22;7557;51.698;3.942;2023-02-26T08:54:30;4.40;99.90
9223;DHT22;7557;51.698;3.942;2023-02-26T08:56:58;4.50;99.90
9223;DHT22;7557;51.698;3.942;2023-02-26T08:59:25;4.50;99.90
9223;DHT22;7557;51.698;3.942;2023-02-26T09:01:53;4.60;99.90
9223;DHT22;7557;51.698;3.942;2023-02-26T09:04:20;4.60;99.90
9223;DHT22;7557;51.698;3.942;2023-02-26T09:06:47;4.70;99.90
9223;DHT22;7557;51.698;3.942;2023-02-26T09:09:14;4.70;99.90
9223;DHT22;7557;51.698;3.942;2023-02-26T09:11:41;4.70;99.90
9223;DHT22;7557;51.698;3.942;2023-02-26T09:14:10;4.80;99.90
9223;DHT22;7557;51.698;3.942;2023-02-26T09:16:37;4.80;99.90
9223;DHT22;7557;51.698;3.942;2023-02-26T09:19:05;4.80;99.90
9223;DHT22;7557;51.698;3.942;2023-02-26T09:21:32;4.90;99.90
9223;DHT22;7557;51.698;3.942;2023-02-26T09:24:00;4.90;99.90
9223;DHT22;7557;51.698;3.942;2023-02-26T09:26:28;4.90;99.90
9223;DHT22;7557;51.698;3.942;2023-02-26T09:28:55;5.00;99.90
9223;DHT22;7557;51.698;3.942;2023-02-26T09:31:23;5.00;99.90
9223;DHT22;7557;51.698;3.942;2023-02-26T09:33:50;5.10;99.90
9223;DHT22;7557;51.698;3.942;2023-02-26T09:36:17;5.10;99.90
9223;DHT22;7557;51.698;3.942;2023-02-26T09:38:44;5.20;99.90
9223;DHT22;7557;51.698;3.942;2023-02-26T09:41:18;5.10;99.90
9223;DHT22;7557;51.698;3.942;2023-02-26T09:44:06;5.20;99.90
9223;DHT22;7557;51.698;3.942;2023-02-26T09:46:43;5.20;99.90
9223;DHT22;7557;51.698;3.942;2023-02-26T09:49:19;5.30;99.90
9223;DHT22;7557;51.698;3.942;2023-02-26T09:51:50;5.40;99.90
9223;DHT22;7557;51.698;3.942;2023-02-26T09:54:22;5.40;99.90
9223;DHT22;7557;51.698;3.942;2023-02-26T09:56:51;5.40;99.90
9223;DHT22;7557;51.698;3.942;2023-02-26T09:59:19;5.50;99.90
9223;DHT22;7557;51.698;3.942;2023-02-26T10:01:57;5.60;99.90
9223;DHT22;7557;51.698;3.942;2023-02-26T10:04:38;5.70;99.90
9223;DHT22;7557;51.698;3.942;2023-02-26T10:07:14;5.70;99.90
9223;DHT22;7557;51.698;3.942;2023-02-26T10:09:56;5.80;99.90
9223;DHT22;7557;51.698;3.942;2023-02-26T10:12:27;5.80;99.90
9223;DHT22;7557;51.698;3.942;2023-02-26T10:14:57;5.90;99.90
9223;DHT22;7557;51.698;3.942;2023-02-26T10:17:31;5.90;99.90
9223;DHT22;7557;51.698;3.942;2023-02-26T10:20:02;5.90;99.90
9223;DHT22;7557;51.698;3.942;2023-02-26T10:22:34;5.90;99.90
9223;DHT22;7557;51.698;3.942;2023-02-26T10:25:08;6.00;99.90
9223;DHT22;7557;51.698;3.942;2023-02-26T10:27:49;6.00;99.90
9223;DHT22;7557;51.698;3.942;2023-02-26T10:30:24;6.00;99.90
9223;DHT22;7557;51.698;3.942;2023-02-26T10:33:00;6.00;99.90
9223;DHT22;7557;51.698;3.942;2023-02-26T10:35:32;6.10;99.90
9223;DHT22;7557;51.698;3.942;2023-02-26T10:38:07;6.20;99.90
9223;DHT22;7557;51.698;3.942;2023-02-26T10:40:39;6.20;99.90
9223;DHT22;7557;51.698;3.942;2023-02-26T10:43:12;6.20;99.90
9223;DHT22;7557;51.698;3.942;2023-02-26T10:45:50;6.30;99.90
9223;DHT22;7557;51.698;3.942;2023-02-26T10:48:30;6.30;99.70
9223;DHT22;7557;51.698;3.942;2023-02-26T10:51:04;6.30;99.70
9223;DHT22;7557;51.698;3.942;2023-02-26T10:53:35;6.30;99.80
9223;DHT22;7557;51.698;3.942;2023-02-26T10:56:05;6.40;99.90
9223;DHT22;7557;51.698;3.942;2023-02-26T10:58:34;6.40;99.30
9223;DHT22;7557;51.698;3.942;2023-02-26T11:01:01;6.40;99.00
9223;DHT22;7557;51.698;3.942;2023-02-26T11:03:33;6.50;99.60
9223;DHT22;7557;51.698;3.942;2023-02-26T11:06:03;6.50;99.00
9223;DHT22;7557;51.698;3.942;2023-02-26T11:08:32;6.50;98.80
9223;DHT22;7557;51.698;3.942;2023-02-26T11:11:02;6.50;99.20
9223;DHT22;7557;51.698;3.942;2023-02-26T11:13:31;6.60;98.60
9223;DHT22;7557;51.698;3.942;2023-02-26T11:16:01;6.60;98.70
9223;DHT22;7557;51.698;3.942;2023-02-26T11:18:35;6.60;98.70
9223;DHT22;7557;51.698;3.942;2023-02-26T11:21:05;6.60;98.50
9223;DHT22;7557;51.698;3.942;2023-02-26T11:23:33;6.60;98.60
9223;DHT22;7557;51.698;3.942;2023-02-26T11:26:04;6.70;98.50
9223;DHT22;7557;51.698;3.942;2023-02-26T11:28:35;6.80;98.60
9223;DHT22;7557;51.698;3.942;2023-02-26T11:31:05;6.80;98.80
9223;DHT22;7557;51.698;3.942;2023-02-26T11:33:37;6.90;99.20
9223;DHT22;7557;51.698;3.942;2023-02-26T11:36:08;6.90;98.50
9223;DHT22;7557;51.698;3.942;2023-02-26T11:38:37;6.90;98.40
9223;DHT22;7557;51.698;3.942;2023-02-26T11:41:04;6.90;97.80
9223;DHT22;7557;51.698;3.942;2023-02-26T11:43:36;6.90;98.70
9223;DHT22;7557;51.698;3.942;2023-02-26T11:46:06;7.00;97.80
9223;DHT22;7557;51.698;3.942;2023-02-26T11:48:39;6.90;98.40
9223;DHT22;7557;51.698;3.942;2023-02-26T11:51:10;7.00;98.60
9223;DHT22;7557;51.698;3.942;2023-02-26T11:53:43;7.00;97.30
9223;DHT22;7557;51.698;3.942;2023-02-26T11:56:18;7.00;98.60
9223;DHT22;7557;51.698;3.942;2023-02-26T11:58:46;7.00;97.20
9223;DHT22;7557;51.698;3.942;2023-02-26T12:01:17;7.00;98.40
9223;DHT22;7557;51.698;3.942;2023-02-26T12:03:49;7.00;98.90
9223;DHT22;7557;51.698;3.942;2023-02-26T12:06:20;7.10;98.90
9223;DHT22;7557;51.698;3.942;2023-02-26T12:08:49;7.10;98.70
9223;DHT22;7557;51.698;3.942;2023-02-26T12:11:36;7.10;97.90
9223;DHT22;7557;51.698;3.942;2023-02-26T12:14:16;7.10;97.40
9223;DHT22;7557;51.698;3.942;2023-02-26T12:16:54;7.10;98.70
9223;DHT22;7557;51.698;3.942;2023-02-26T12:19:35;7.10;97.60
9223;DHT22;7557;51.698;3.942;2023-02-26T12:22:25;7.10;98.50
9223;DHT22;7557;51.698;3.942;2023-02-26T12:25:13;6.90;98.40
9223;DHT22;7557;51.698;3.942;2023-02-26T12:28:02;6.80;98.60
9223;DHT22;7557;51.698;3.942;2023-02-26T12:30:54;6.90;98.40
9223;DHT22;7557;51.698;3.942;2023-02-26T12:33:34;6.90;98.10
9223;DHT22;7557;51.698;3.942;2023-02-26T12:36:25;6.90;98.50
9223;DHT22;7557;51.698;3.942;2023-02-26T12:39:02;7.00;98.60
9223;DHT22;7557;51.698;3.942;2023-02-26T12:41:55;7.10;98.60
9223;DHT22;7557;51.698;3.942;2023-02-26T12:44:41;7.10;97.20
9223;DHT22;7557;51.698;3.942;2023-02-26T12:47:26;7.10;97.40
9223;DHT22;7557;51.698;3.942;2023-02-26T12:50:06;7.00;97.90
9223;DHT22;7557;51.698;3.942;2023-02-26T12:53:04;7.00;97.50
9223;DHT22;7557;51.698;3.942;2023-02-26T12:55:44;7.00;96.80
9223;DHT22;7557;51.698;3.942;2023-02-26T12:58:32;6.90;97.50
9223;DHT22;7557;51.698;3.942;2023-02-26T13:01:13;7.00;97.70
9223;DHT22;7557;51.698;3.942;2023-02-26T13:07:08;7.10;98.80
9223;DHT22;7557;51.698;3.942;2023-02-26T13:09:49;7.20;98.70
9223;DHT22;7557;51.698;3.942;2023-02-26T13:12:33;7.30;98.00
9223;DHT22;7557;51.698;3.942;2023-02-26T13:15:17;7.40;98.00
9223;DHT22;7557;51.698;3.942;2023-02-26T13:17:52;7.40;98.00
9223;DHT22;7557;51.698;3.942;2023-02-26T13:20:24;7.50;98.60
9223;DHT22;7557;51.698;3.942;2023-02-26T13:22:54;7.50;98.30
9223;DHT22;7557;51.698;3.942;2023-02-26T13:25:29;7.60;98.80
9223;DHT22;7557;51.698;3.942;2023-02-26T13:28:00;7.70;98.70
9223;DHT22;7557;51.698;3.942;2023-02-26T13:30:33;7.70;97.80
9223;DHT22;7557;51.698;3.942;2023-02-26T13:33:01;7.60;97.10
9223;DHT22;7557;51.698;3.942;2023-02-26T13:35:34;7.30;96.80
9223;DHT22;7557;51.698;3.942;2023-02-26T13:38:10;7.10;97.60
9223;DHT22;7557;51.698;3.942;2023-02-26T13:40:50;7.00;97.70
9223;DHT22;7557;51.698;3.942;2023-02-26T13:43:47;6.90;97.50
9223;DHT22;7557;51.698;3.942;2023-02-26T13:46:29;6.90;99.00
9223;DHT22;7557;51.698;3.942;2023-02-26T13:49:05;7.00;98.50
9223;DHT22;7557;51.698;3.942;2023-02-26T13:51:36;7.10;98.40
9223;DHT22;7557;51.698;3.942;2023-02-26T13:54:07;7.10;96.70
9223;DHT22;7557;51.698;3.942;2023-02-26T13:56:47;7.10;97.00
9223;DHT22;7557;51.698;3.942;2023-02-26T13:59:36;7.20;96.90
9223;DHT22;7557;51.698;3.942;2023-02-26T14:02:35;7.20;97.30
9223;DHT22;7557;51.698;3.942;2023-02-26T14:05:25;7.20;97.40
9223;DHT22;7557;51.698;3.942;2023-02-26T14:08:09;7.20;98.20
9223;DHT22;7557;51.698;3.942;2023-02-26T14:10:44;7.30;98.10
9223;DHT22;7557;51.698;3.942;2023-02-26T14:13:17;7.30;98.80
9223;DHT22;7557;51.698;3.942;2023-02-26T14:15:52;7.40;97.60
9223;DHT22;7557;51.698;3.942;2023-02-26T14:18:32;7.30;96.90
9223;DHT22;7557;51.698;3.942;2023-02-26T14:21:26;7.30;97.30
9223;DHT22;7557;51.698;3.942;2023-02-26T14:23:56;7.30;96.70
9223;DHT22;7557;51.698;3.942;2023-02-26T14:26:24;7.30;97.30
9223;DHT22;7557;51.698;3.942;2023-02-26T14:29:07;7.30;97.50
9223;DHT22;7557;51.698;3.942;2023-02-26T14:31:52;7.30;96.90
9223;DHT22;7557;51.698;3.942;2023-02-26T14:34:22;7.40;97.70
9223;DHT22;7557;51.698;3.942;2023-02-26T14:36:52;7.30;98.30
9223;DHT22;7557;51.698;3.942;2023-02-26T14:39:27;7.40;98.60
9223;DHT22;7557;51.698;3.942;2023-02-26T14:42:01;7.30;98.10
9223;DHT22;7557;51.698;3.942;2023-02-26T14:44:34;7.40;97.90
9223;DHT22;7557;51.698;3.942;2023-02-26T14:47:02;7.40;98.10
9223;DHT22;7557;51.698;3.942;2023-02-26T14:49:32;7.30;97.30
9223;DHT22;7557;51.698;3.942;2023-02-26T14:55:15;7.30;98.00
9223;DHT22;7557;51.698;3.942;2023-02-26T14:57:52;7.30;98.50
9223;DHT22;7557;51.698;3.942;2023-02-26T15:00:34;7.30;97.40
9223;DHT22;7557;51.698;3.942;2023-02-26T15:03:30;7.30;98.70
9223;DHT22;7557;51.698;3.942;2023-02-26T15:06:17;7.40;98.10
9223;DHT22;7557;51.698;3.942;2023-02-26T15:08:58;7.30;97.80
9223;DHT22;7557;51.698;3.942;2023-02-26T15:11:48;7.30;97.90
9223;DHT22;7557;51.698;3.942;2023-02-26T15:14:30;7.30;97.40
9223;DHT22;7557;51.698;3.942;2023-02-26T15:17:10;7.30;98.30
9223;DHT22;7557;51.698;3.942;2023-02-26T15:20:03;7.30;98.60
9223;DHT22;7557;51.698;3.942;2023-02-26T15:22:44;7.30;97.40
9223;DHT22;7557;51.698;3.942;2023-02-26T15:25:22;7.20;98.00
9223;DHT22;7557;51.698;3.942;2023-02-26T15:27:52;7.20;98.20
9223;DHT22;7557;51.698;3.942;2023-02-26T15:30:19;7.30;98.70
9223;DHT22;7557;51.698;3.942;2023-02-26T15:32:48;7.30;99.00
9223;DHT22;7557;51.698;3.942;2023-02-26T15:35:17;7.30;98.80
9223;DHT22;7557;51.698;3.942;2023-02-26T15:37:48;7.40;98.10
9223;DHT22;7557;51.698;3.942;2023-02-26T15:40:16;7.30;97.90
9223;DHT22;7557;51.698;3.942;2023-02-26T15:42:44;7.30;98.20
9223;DHT22;7557;51.698;3.942;2023-02-26T15:45:21;7.30;98.70
9223;DHT22;7557;51.698;3.942;2023-02-26T15:47:54;7.30;98.70
9223;DHT22;7557;51.698;3.942;2023-02-26T15:50:23;7.30;98.70
9223;DHT22;7557;51.698;3.942;2023-02-26T15:52:55;7.40;98.90
9223;DHT22;7557;51.698;3.942;2023-02-26T15:55:24;7.30;97.80
9223;DHT22;7557;51.698;3.942;2023-02-26T15:57:52;7.30;98.40
9223;DHT22;7557;51.698;3.942;2023-02-26T16:00:21;7.30;97.90
9223;DHT22;7557;51.698;3.942;2023-02-26T16:02:52;7.20;97.60
9223;DHT22;7557;51.698;3.942;2023-02-26T16:05:21;7.30;98.40
9223;DHT22;7557;51.698;3.942;2023-02-26T16:07:49;7.20;98.60
9223;DHT22;7557;51.698;3.942;2023-02-26T16:10:25;7.20;98.60
9223;DHT22;7557;51.698;3.942;2023-02-26T16:12:53;7.20;98.70
9223;DHT22;7557;51.698;3.942;2023-02-26T16:15:31;7.10;98.60
9223;DHT22;7557;51.698;3.942;2023-02-26T16:18:03;7.00;99.20
9223;DHT22;7557;51.698;3.942;2023-02-26T16:20:36;6.90;99.20
9223;DHT22;7557;51.698;3.942;2023-02-26T16:23:06;6.90;98.90
9223;DHT22;7557;51.698;3.942;2023-02-26T16:25:39;6.90;99.40
9223;DHT22;7557;51.698;3.942;2023-02-26T16:28:13;6.90;99.80
9223;DHT22;7557;51.698;3.942;2023-02-26T16:30:46;6.90;99.60
9223;DHT22;7557;51.698;3.942;2023-02-26T16:33:16;6.90;99.50
9223;DHT22;7557;51.698;3.942;2023-02-26T16:35:46;6.80;99.90
9223;DHT22;7557;51.698;3.942;2023-02-26T16:38:18;6.80;99.90
9223;DHT22;7557;51.698;3.942;2023-02-26T16:40:46;6.70;99.90
9223;DHT22;7557;51.698;3.942;2023-02-26T16:43:34;6.60;99.90
9223;DHT22;7557;51.698;3.942;2023-02-26T16:46:04;6.50;99.90
9223;DHT22;7557;51.698;3.942;2023-02-26T16:48:36;6.50;99.90
9223;DHT22;7557;51.698;3.942;2023-02-26T16:51:09;6.40;99.90
9223;DHT22;7557;51.698;3.942;2023-02-26T16:53:41;6.40;99.90